Time;durP1;ratioP1;P1;durP2;ratioP2;P2;SDS_P1;SDS_P2;PMS_P1;PMS_P2;Temp;Humidity;BMP_temperature;BMP_pressure;BME280_temperature;BME280_humidity;BME280_pressure;Samples;Min_cycle;Max_cycle;Signal;HPM_P1;HPM_P2
2023/07/12 00:00:22;;;;;;;14.33;11.00;;;22.20;1.00;;;;;;5077462;28;20465;-60
2023/07/12 00:02:49;;;;;;;15.30;12.50;;;22.10;1.00;;;;;;5077298;28;20817;-60
2023/07/12 00:05:17;;;;;;;14.00;11.60;;;22.00;1.00;;;;;;5077096;28;20897;-59
2023/07/12 00:07:46;;;;;;;16.13;10.83;;;22.00;1.00;;;;;;5076921;28;20560;-59
2023/07/12 00:10:19;;;;;;;14.07;9.77;;;22.00;1.00;;;;;;5077198;28;20519;-59
2023/07/12 00:12:46;;;;;;;11.63;8.20;;;21.90;1.00;;;;;;5077152;28;20960;-60
2023/07/12 00:15:18;;;;;;;10.63;8.00;;;21.80;1.00;;;;;;5077073;28;20484;-59
2023/07/12 00:17:45;;;;;;;10.87;7.03;;;21.80;1.00;;;;;;5077210;28;20461;-59
2023/07/12 00:20:25;;;;;;;10.60;6.47;;;21.80;1.00;;;;;;5077395;28;20465;-59
2023/07/12 00:22:54;;;;;;;7.83;6.03;;;21.80;1.00;;;;;;5076850;28;20530;-59
2023/07/12 00:25:23;;;;;;;7.00;5.37;;;21.70;1.00;;;;;;5077013;28;20453;-59
2023/07/12 00:27:50;;;;;;;6.17;5.33;;;21.60;1.00;;;;;;5077049;28;20767;-60
2023/07/12 00:30:21;;;;;;;9.73;5.23;;;21.60;1.00;;;;;;5076957;28;20463;-59
2023/07/12 00:32:55;;;;;;;5.67;4.70;;;21.50;1.00;;;;;;5077031;28;20859;-60
2023/07/12 00:35:24;;;;;;;7.77;5.33;;;21.40;99.90;;;;;;5076884;28;20488;-60
2023/07/12 00:37:55;;;;;;;6.07;4.20;;;21.40;99.90;;;;;;5076748;28;20463;-61
2023/07/12 00:40:50;;;;;;;6.10;4.23;;;21.40;99.90;;;;;;5077112;28;20461;-59
2023/07/12 00:43:25;;;;;;;5.13;4.63;;;21.50;99.90;;;;;;5076642;28;20495;-60
2023/07/12 00:45:54;;;;;;;4.17;3.77;;;21.50;99.90;;;;;;5076934;28;20493;-60
2023/07/12 00:48:21;;;;;;;6.40;4.70;;;21.50;99.90;;;;;;5076827;28;20902;-59
2023/07/12 00:50:49;;;;;;;3.87;3.47;;;21.40;99.90;;;;;;5076562;28;20543;-60
2023/07/12 00:53:20;;;;;;;4.80;3.57;;;21.30;99.90;;;;;;5076814;28;20886;-59
2023/07/12 00:56:01;;;;;;;5.27;4.00;;;21.40;99.90;;;;;;5076526;28;20596;-60
2023/07/12 00:58:33;;;;;;;7.03;4.77;;;21.40;99.90;;;;;;5077040;28;20766;-59
2023/07/12 01:01:02;;;;;;;5.43;4.10;;;21.30;99.90;;;;;;5076652;28;20563;-59
2023/07/12 01:03:33;;;;;;;7.50;3.90;;;21.20;99.90;;;;;;5076643;28;20511;-59
2023/07/12 01:06:01;;;;;;;3.97;3.57;;;21.30;99.90;;;;;;5076804;28;20467;-59
2023/07/12 01:08:31;;;;;;;6.47;3.80;;;21.30;99.90;;;;;;5076878;28;20465;-59
2023/07/12 01:11:01;;;;;;;5.80;3.77;;;21.20;99.90;;;;;;5076426;28;20522;-59
2023/07/12 01:13:30;;;;;;;6.17;4.20;;;21.20;99.90;;;;;;5076445;28;20461;-59
2023/07/12 01:16:00;;;;;;;5.60;4.00;;;21.20;99.90;;;;;;5076342;28;20495;-59
2023/07/12 01:18:28;;;;;;;4.87;3.77;;;21.10;99.90;;;;;;5077161;28;20560;-60
2023/07/12 01:21:11;;;;;;;3.97;3.53;;;21.10;99.90;;;;;;5079595;28;20552;-59
2023/07/12 01:23:39;;;;;;;5.20;3.60;;;21.00;99.90;;;;;;5079663;28;20548;-59
2023/07/12 01:26:25;;;;;;;4.87;3.97;;;21.00;99.90;;;;;;5079879;28;20457;-60
2023/07/12 01:28:55;;;;;;;3.93;3.40;;;21.00;99.90;;;;;;5079766;28;20460;-60
2023/07/12 01:31:24;;;;;;;4.70;3.70;;;21.10;1.00;;;;;;5079760;28;20500;-61
2023/07/12 01:33:51;;;;;;;7.10;3.80;;;21.20;1.00;;;;;;5079789;28;20469;-61
2023/07/12 01:36:20;;;;;;;4.70;3.20;;;21.10;99.90;;;;;;5084818;28;20499;-58
2023/07/12 01:38:48;;;;;;;10.33;3.53;;;21.00;1.00;;;;;;5079616;28;20484;-54
2023/07/12 01:41:16;;;;;;;3.73;2.87;;;20.70;1.00;;;;;;5079602;28;20483;-57
2023/07/12 01:43:43;;;;;;;4.97;3.00;;;20.40;1.00;;;;;;5079742;28;20954;-57
2023/07/12 01:46:11;;;;;;;3.77;3.37;;;20.30;1.00;;;;;;5079778;28;20496;-59
2023/07/12 01:48:38;;;;;;;3.37;3.07;;;20.20;1.00;;;;;;5079991;28;20461;-59
2023/07/12 01:51:06;;;;;;;3.90;3.13;;;20.10;99.90;;;;;;5079720;28;20729;-61
2023/07/12 01:53:35;;;;;;;4.97;3.27;;;19.90;99.90;;;;;;5079644;28;20471;-60
2023/07/12 01:56:04;;;;;;;3.80;3.40;;;19.90;99.90;;;;;;5079469;28;20497;-60
2023/07/12 01:58:32;;;;;;;3.70;3.40;;;20.00;99.90;;;;;;5079385;28;20493;-63
2023/07/12 02:01:00;;;;;;;5.63;3.40;;;19.90;1.00;;;;;;5078962;28;20467;-65
2023/07/12 02:03:28;;;;;;;4.43;3.50;;;19.90;32.70;;;;;;5079198;28;20504;-67
2023/07/12 02:05:55;;;;;;;4.27;3.87;;;20.00;99.90;;;;;;5079544;28;20736;-67
2023/07/12 02:08:22;;;;;;;4.30;3.20;;;20.00;1.00;;;;;;5079434;28;20560;-67
2023/07/12 02:10:51;;;;;;;3.77;2.97;;;20.10;1.00;;;;;;5078716;28;20560;-67
2023/07/12 02:13:21;;;;;;;4.47;3.60;;;19.90;99.90;;;;;;5078859;28;20463;-67
2023/07/12 02:15:48;;;;;;;3.97;3.03;;;19.70;99.90;;;;;;5079211;28;20469;-68
2023/07/12 02:18:16;;;;;;;4.00;3.10;;;19.60;99.90;;;;;;5078988;28;20440;-67
2023/07/12 02:20:43;;;;;;;4.30;3.30;;;19.50;99.90;;;;;;5078666;28;20897;-67
2023/07/12 02:23:10;;;;;;;4.90;3.00;;;19.50;99.90;;;;;;5078771;28;20462;-68
2023/07/12 02:25:37;;;;;;;5.20;3.70;;;19.40;99.90;;;;;;5078703;28;20461;-68
2023/07/12 02:28:06;;;;;;;5.70;3.50;;;19.40;1.00;;;;;;5079059;28;20503;-68
2023/07/12 02:30:33;;;;;;;3.60;3.00;;;19.40;1.00;;;;;;5078502;28;20897;-69
2023/07/12 02:33:01;;;;;;;4.03;3.03;;;19.40;14.30;;;;;;5078703;28;20467;-68
2023/07/12 02:35:31;;;;;;;6.27;3.63;;;19.50;99.90;;;;;;5078722;28;20466;-68
2023/07/12 02:37:59;;;;;;;6.10;3.53;;;19.50;99.90;;;;;;5078778;28;20474;-68
2023/07/12 02:40:28;;;;;;;6.33;3.67;;;19.40;99.90;;;;;;5078849;28;20504;-67
2023/07/12 02:42:55;;;;;;;4.00;2.73;;;19.40;37.90;;;;;;5078172;28;20485;-67
2023/07/12 02:45:24;;;;;;;3.63;3.30;;;19.20;1.00;;;;;;5078291;28;20461;-67
2023/07/12 02:47:52;;;;;;;4.00;3.40;;;19.20;1.00;;;;;;5078276;28;20511;-67
2023/07/12 02:50:19;;;;;;;3.50;3.20;;;19.20;1.00;;;;;;5078295;28;20461;-68
2023/07/12 02:52:48;;;;;;;4.70;3.00;;;19.10;1.00;;;;;;5078345;28;20491;-68
2023/07/12 02:55:16;;;;;;;5.70;3.40;;;19.10;1.00;;;;;;5078198;28;20564;-68
2023/07/12 02:57:43;;;;;;;3.70;3.10;;;19.10;1.00;;;;;;5078195;28;20490;-68
2023/07/12 03:00:11;;;;;;;4.50;3.43;;;19.10;1.00;;;;;;5078454;28;20568;-68
2023/07/12 03:02:40;;;;;;;4.60;3.13;;;19.10;1.00;;;;;;5078156;28;20534;-68
2023/07/12 03:05:08;;;;;;;3.63;2.70;;;18.90;1.00;;;;;;5078414;28;20487;-69
2023/07/12 03:07:35;;;;;;;5.00;3.80;;;18.90;1.00;;;;;;5078085;28;20556;-68
2023/07/12 03:10:03;;;;;;;5.87;3.60;;;18.90;1.00;;;;;;5078241;28;20469;-69
2023/07/12 03:12:30;;;;;;;7.50;4.80;;;18.90;1.00;;;;;;5077943;28;20502;-68
2023/07/12 03:14:58;;;;;;;4.53;3.30;;;18.80;1.00;;;;;;5077619;28;20937;-68
2023/07/12 03:17:25;;;;;;;6.57;3.80;;;18.80;1.00;;;;;;5077868;28;20930;-68
2023/07/12 03:19:54;;;;;;;4.73;4.23;;;18.80;39.80;;;;;;5078154;28;20457;-67
2023/07/12 03:22:21;;;;;;;4.27;3.87;;;18.80;49.70;;;;;;5078333;28;20483;-68
2023/07/12 03:24:48;;;;;;;5.30;4.10;;;18.70;1.00;;;;;;5077828;28;20551;-68
2023/07/12 03:27:16;;;;;;;9.03;4.70;;;18.60;36.40;;;;;;5078377;28;20465;-68
2023/07/12 03:29:43;;;;;;;5.37;4.87;;;18.50;99.90;;;;;;5077621;28;20461;-68
2023/07/12 03:32:11;;;;;;;5.93;4.40;;;18.40;99.90;;;;;;5077847;28;20465;-68
2023/07/12 03:34:38;;;;;;;5.67;4.43;;;18.50;99.90;;;;;;5077865;28;20463;-68
2023/07/12 03:37:06;;;;;;;6.00;4.00;;;18.30;1.00;;;;;;5077486;28;20528;-68
2023/07/12 03:39:34;;;;;;;7.10;4.03;;;18.30;1.00;;;;;;5077826;28;20797;-68
2023/07/12 03:42:01;;;;;;;6.33;4.20;;;18.30;1.00;;;;;;5077455;28;20960;-70
2023/07/12 03:44:28;;;;;;;5.37;3.60;;;18.10;1.00;;;;;;5079577;28;20468;-67
2023/07/12 03:46:56;;;;;;;5.40;4.10;;;18.00;1.00;;;;;;5076995;28;20442;-67
2023/07/12 03:49:23;;;;;;;6.37;4.13;;;18.00;1.00;;;;;;5077953;28;20436;-66
2023/07/12 03:51:50;;;;;;;7.20;4.27;;;18.00;1.00;;;;;;5077490;28;20461;-68
2023/07/12 03:54:19;;;;;;;7.70;3.83;;;18.00;1.00;;;;;;5077970;28;20454;-68
2023/07/12 03:56:46;;;;;;;5.27;3.20;;;17.90;1.00;;;;;;5077042;28;20493;-67
2023/07/12 03:59:13;;;;;;;9.13;4.23;;;18.00;1.00;;;;;;5077405;28;20539;-67
2023/07/12 04:01:41;;;;;;;7.20;3.30;;;18.10;1.00;;;;;;5076871;28;20462;-68
2023/07/12 04:04:08;;;;;;;6.93;3.57;;;18.10;99.90;;;;;;5077163;28;20465;-67
2023/07/12 04:06:35;;;;;;;4.40;3.47;;;18.20;99.90;;;;;;5077255;28;20556;-67
2023/07/12 04:09:03;;;;;;;3.87;3.13;;;18.10;99.50;;;;;;5076946;28;20493;-67
2023/07/12 04:11:33;;;;;;;5.97;3.37;;;18.10;99.90;;;;;;5077024;28;20878;-67
2023/07/12 04:14:01;;;;;;;4.40;3.60;;;18.20;99.90;;;;;;5077186;28;20464;-67
2023/07/12 04:16:29;;;;;;;5.10;3.27;;;18.30;90.60;;;;;;5077210;28;20489;-66
2023/07/12 04:18:57;;;;;;;4.83;3.13;;;18.30;70.70;;;;;;5077581;28;20475;-67
2023/07/12 04:21:25;;;;;;;4.20;3.00;;;18.30;2.50;;;;;;5077415;28;20461;-67
2023/07/12 04:23:53;;;;;;;4.10;3.20;;;18.40;1.00;;;;;;5077374;28;20483;-67
2023/07/12 04:26:21;;;;;;;5.73;3.20;;;18.50;1.00;;;;;;5077647;28;20465;-67
2023/07/12 04:28:52;;;;;;;3.83;2.57;;;18.60;1.00;;;;;;5076616;28;20514;-67
2023/07/12 04:31:21;;;;;;;4.53;3.27;;;18.70;1.00;;;;;;5076693;28;20479;-68
2023/07/12 04:33:49;;;;;;;4.90;4.10;;;18.60;1.00;;;;;;5076922;28;20465;-68
2023/07/12 04:36:18;;;;;;;3.50;3.20;;;18.50;1.00;;;;;;5077068;28;20501;-67
2023/07/12 04:38:46;;;;;;;6.63;2.80;;;18.40;35.70;;;;;;5076893;28;20465;-69
2023/07/12 04:41:13;;;;;;;3.70;2.73;;;18.50;1.00;;;;;;5076555;28;20468;-68
2023/07/12 04:43:40;;;;;;;4.00;2.60;;;18.50;5.00;;;;;;5077074;28;20465;-68
2023/07/12 04:46:09;;;;;;;5.53;2.70;;;18.50;1.00;;;;;;5076856;28;20897;-68
2023/07/12 04:48:36;;;;;;;8.37;2.80;;;18.40;1.00;;;;;;5076111;28;20457;-68
2023/07/12 04:51:04;;;;;;;5.10;3.17;;;18.30;1.00;;;;;;5076320;28;20563;-68
2023/07/12 04:53:32;;;;;;;3.00;2.00;;;18.40;1.00;;;;;;5078518;28;20466;-67
2023/07/12 04:55:59;;;;;;;2.87;2.20;;;18.30;1.00;;;;;;5080873;28;20892;-69
2023/07/12 04:58:27;;;;;;;3.33;2.20;;;18.30;1.00;;;;;;5080422;28;20784;-69
2023/07/12 05:00:55;;;;;;;2.73;2.43;;;18.20;1.00;;;;;;5080680;28;20916;-68
2023/07/12 05:03:24;;;;;;;3.77;3.10;;;18.20;1.00;;;;;;5080883;28;20535;-69
2023/07/12 05:05:52;;;;;;;3.90;2.70;;;18.10;1.00;;;;;;5080616;28;20575;-70
2023/07/12 05:08:19;;;;;;;3.67;2.70;;;18.10;1.00;;;;;;5080318;28;20461;-71
2023/07/12 05:10:46;;;;;;;3.20;2.33;;;18.20;1.00;;;;;;5080399;28;20560;-70
2023/07/12 05:13:14;;;;;;;2.83;2.00;;;18.10;1.00;;;;;;5080452;28;20941;-69
2023/07/12 05:15:41;;;;;;;2.90;2.10;;;18.10;1.00;;;;;;5080439;28;20493;-70
2023/07/12 05:18:08;;;;;;;3.07;2.13;;;18.10;1.00;;;;;;5080790;28;20851;-70
2023/07/12 05:20:38;;;;;;;3.50;2.27;;;18.20;1.00;;;;;;5080974;28;20552;-70
2023/07/12 05:23:05;;;;;;;3.03;2.20;;;18.30;1.00;;;;;;5080149;28;20520;-70
2023/07/12 05:25:32;;;;;;;3.00;2.70;;;18.30;1.00;;;;;;5081556;28;20833;-69
2023/07/12 05:28:00;;;;;;;3.87;2.43;;;18.30;1.00;;;;;;5080097;28;20457;-69
2023/07/12 05:30:28;;;;;;;2.90;2.27;;;18.30;1.00;;;;;;5080454;28;20487;-68
2023/07/12 05:32:55;;;;;;;4.20;2.73;;;18.40;1.00;;;;;;5080017;28;20458;-68
2023/07/12 05:35:22;;;;;;;3.83;2.53;;;18.50;1.00;;;;;;5080082;28;20466;-67
2023/07/12 05:37:51;;;;;;;2.53;1.70;;;18.40;99.90;;;;;;5079591;28;20583;-68
2023/07/12 05:40:19;;;;;;;2.83;2.50;;;18.40;1.00;;;;;;5080087;28;20552;-62
2023/07/12 05:42:47;;;;;;;4.03;2.10;;;18.40;99.90;;;;;;5079600;28;20926;-66
2023/07/12 05:45:14;;;;;;;2.60;2.20;;;18.40;1.00;;;;;;5079835;28;20468;-67
2023/07/12 05:47:45;;;;;;;3.63;2.23;;;18.40;1.00;;;;;;5079499;28;20496;-68
2023/07/12 05:50:15;;;;;;;3.00;2.50;;;18.40;1.00;;;;;;5079929;28;20461;-66
2023/07/12 05:52:42;;;;;;;3.23;2.10;;;18.50;99.90;;;;;;5079324;28;20466;-67
2023/07/12 05:55:13;;;;;;;2.27;2.07;;;18.50;99.90;;;;;;5079447;28;20461;-65
2023/07/12 05:57:40;;;;;;;4.80;2.60;;;18.50;99.90;;;;;;5079706;28;20524;-66
2023/07/12 06:00:10;;;;;;;2.77;2.20;;;18.40;99.90;;;;;;5081244;28;20508;-67
2023/07/12 06:02:37;;;;;;;2.97;2.37;;;18.30;1.00;;;;;;5079565;28;20514;-67
2023/07/12 06:05:05;;;;;;;2.53;2.20;;;18.30;1.00;;;;;;5078578;28;20768;-67
2023/07/12 06:07:33;;;;;;;2.90;2.20;;;18.30;1.00;;;;;;5079349;28;20500;-66
2023/07/12 06:10:01;;;;;;;2.57;2.23;;;18.30;1.00;;;;;;5079882;28;20501;-66
2023/07/12 06:12:29;;;;;;;3.83;2.53;;;18.20;1.00;;;;;;5079761;28;20488;-67
2023/07/12 06:14:57;;;;;;;2.50;2.00;;;18.20;1.00;;;;;;5079479;28;20568;-66
2023/07/12 06:17:24;;;;;;;3.70;2.77;;;18.20;1.00;;;;;;5079363;28;20558;-67
2023/07/12 06:19:51;;;;;;;3.50;2.70;;;18.20;1.00;;;;;;5079194;28;20806;-65
2023/07/12 06:22:18;;;;;;;2.93;2.63;;;18.10;1.00;;;;;;5079732;28;20489;-62
2023/07/12 06:24:46;;;;;;;3.40;2.40;;;18.10;1.00;;;;;;5078467;28;20552;-65
2023/07/12 06:27:13;;;;;;;3.33;2.90;;;18.00;1.00;;;;;;5078655;28;20506;-62
2023/07/12 06:29:42;;;;;;;2.87;2.40;;;18.10;1.00;;;;;;5078838;28;20493;-68
2023/07/12 06:32:11;;;;;;;3.00;2.30;;;18.00;1.00;;;;;;5078908;28;20560;-66
2023/07/12 06:34:38;;;;;;;5.17;3.00;;;17.90;1.00;;;;;;5079218;28;20807;-64
2023/07/12 06:37:05;;;;;;;4.50;2.60;;;17.80;1.00;;;;;;5078526;28;20492;-66
2023/07/12 06:39:33;;;;;;;3.73;2.63;;;17.90;1.00;;;;;;5078545;28;20483;-65
2023/07/12 06:42:01;;;;;;;3.27;2.60;;;18.10;1.00;;;;;;5078332;28;20517;-63
2023/07/12 06:44:28;;;;;;;5.23;2.63;;;18.30;1.00;;;;;;5078627;28;20466;-64
2023/07/12 06:46:57;;;;;;;5.03;2.60;;;18.50;1.00;;;;;;5078054;28;20465;-64
2023/07/12 06:49:24;;;;;;;3.97;2.67;;;18.90;1.00;;;;;;5078372;28;20560;-63
2023/07/12 06:51:51;;;;;;;3.73;2.80;;;19.30;1.00;;;;;;5078354;28;20465;-64
2023/07/12 06:54:19;;;;;;;3.83;2.57;;;19.20;99.90;;;;;;5078486;28;20497;-64
2023/07/12 06:56:48;;;;;;;3.47;2.40;;;19.20;99.90;;;;;;5077812;28;20497;-64
2023/07/12 06:59:15;;;;;;;4.70;2.47;;;18.90;99.90;;;;;;5078130;28;20532;-62
2023/07/12 07:01:42;;;;;;;3.30;2.53;;;18.90;1.00;;;;;;5078162;28;20473;-64
2023/07/12 07:04:11;;;;;;;4.90;2.50;;;19.30;99.90;;;;;;5078085;28;20462;-63
2023/07/12 07:06:38;;;;;;;3.30;2.10;;;19.70;99.90;;;;;;5078110;28;20882;-63
2023/07/12 07:09:06;;;;;;;5.20;2.50;;;20.10;99.90;;;;;;5077839;28;20591;-63
2023/07/12 07:11:33;;;;;;;2.97;2.40;;;20.10;99.90;;;;;;5077993;28;20492;-64
2023/07/12 07:14:01;;;;;;;4.00;2.23;;;20.20;99.90;;;;;;5076676;28;20530;-64
2023/07/12 07:16:28;;;;;;;2.97;1.93;;;20.30;99.90;;;;;;5076639;28;20466;-64
2023/07/12 07:18:55;;;;;;;6.50;3.03;;;20.20;99.90;;;;;;5076704;28;20528;-65
2023/07/12 07:21:24;;;;;;;5.73;2.80;;;19.90;99.90;;;;;;5076847;28;20535;-63
2023/07/12 07:23:52;;;;;;;4.77;2.97;;;19.70;99.90;;;;;;5077787;28;20910;-64
2023/07/12 07:26:20;;;;;;;3.43;2.80;;;19.40;99.90;;;;;;5077368;28;20564;-65
2023/07/12 07:28:47;;;;;;;3.90;3.00;;;19.20;99.90;;;;;;5077729;28;20948;-65
2023/07/12 07:31:14;;;;;;;4.07;2.60;;;19.20;99.90;;;;;;5077585;28;20446;-63
2023/07/12 07:33:42;;;;;;;5.10;2.93;;;19.20;99.90;;;;;;5077620;28;20493;-63
2023/07/12 07:36:14;;;;;;;3.40;2.77;;;19.50;99.90;;;;;;5077958;28;20461;-63
2023/07/12 07:38:42;;;;;;;4.03;2.63;;;19.50;99.90;;;;;;5076752;28;20551;-62
2023/07/12 07:41:14;;;;;;;6.07;2.90;;;19.50;99.90;;;;;;5077206;28;20468;-62
2023/07/12 07:43:44;;;;;;;6.43;3.00;;;20.00;99.90;;;;;;5077616;28;20465;-62
2023/07/12 07:46:12;;;;;;;5.07;2.90;;;20.30;99.90;;;;;;5077586;28;20461;-63
2023/07/12 07:48:39;;;;;;;2.93;2.20;;;20.50;99.90;;;;;;5077792;28;20507;-65
2023/07/12 07:51:08;;;;;;;4.93;2.47;;;20.50;99.90;;;;;;5077394;28;20901;-64
2023/07/12 07:53:36;;;;;;;3.30;2.60;;;20.50;99.90;;;;;;5077134;28;20492;-63
2023/07/12 07:56:05;;;;;;;4.93;3.23;;;20.40;99.90;;;;;;5077460;28;20569;-64
2023/07/12 07:58:32;;;;;;;3.67;2.77;;;20.50;99.90;;;;;;5077273;28;20604;-64
2023/07/12 08:01:00;;;;;;;5.17;2.83;;;20.50;99.90;;;;;;5077193;28;20462;-64
2023/07/12 08:03:27;;;;;;;4.07;2.80;;;21.00;99.90;;;;;;5077330;28;20465;-63
2023/07/12 08:06:00;;;;;;;3.83;2.70;;;20.80;99.90;;;;;;5077429;28;20785;-63
2023/07/12 08:08:28;;;;;;;5.23;3.47;;;20.40;99.90;;;;;;5077375;28;20463;-64
2023/07/12 08:10:57;;;;;;;3.37;2.90;;;20.10;99.90;;;;;;5077556;28;20757;-64
2023/07/12 08:13:27;;;;;;;5.17;3.47;;;20.10;99.90;;;;;;5077002;28;20906;-63
2023/07/12 08:15:56;;;;;;;4.80;3.10;;;20.20;99.90;;;;;;5082919;28;20479;-64
2023/07/12 08:18:23;;;;;;;3.13;2.60;;;20.40;99.90;;;;;;5097067;28;20489;-64
2023/07/12 08:20:54;;;;;;;3.20;2.67;;;20.90;99.90;;;;;;5097044;28;20555;-63
2023/07/12 08:23:21;;;;;;;3.80;2.40;;;21.30;99.90;;;;;;5096836;28;20496;-62
2023/07/12 08:25:50;;;;;;;4.83;2.33;;;21.40;99.90;;;;;;5097840;28;20927;-63
2023/07/12 08:28:17;;;;;;;3.97;3.00;;;20.70;99.90;;;;;;5099404;28;20466;-64
2023/07/12 08:30:46;;;;;;;2.87;2.43;;;20.30;99.90;;;;;;5101958;28;20452;-64
2023/07/12 08:33:14;;;;;;;4.20;3.17;;;20.20;99.90;;;;;;5101157;28;20470;-65
2023/07/12 08:35:41;;;;;;;5.93;2.97;;;20.20;99.90;;;;;;5101181;28;20467;-63
2023/07/12 08:38:09;;;;;;;3.97;2.80;;;20.70;99.90;;;;;;5101160;28;20558;-63
2023/07/12 08:40:42;;;;;;;3.87;2.60;;;21.40;99.90;;;;;;5101028;28;20466;-63
2023/07/12 08:43:13;;;;;;;4.10;2.83;;;21.30;99.90;;;;;;5100925;28;20578;-63
2023/07/12 08:45:41;;;;;;;3.67;2.70;;;22.00;99.90;;;;;;5101024;28;20460;-65
2023/07/12 08:48:18;;;;;;;4.47;2.37;;;22.20;99.90;;;;;;5101189;28;20480;-65
2023/07/12 08:50:47;;;;;;;4.17;3.00;;;22.20;99.90;;;;;;5101335;28;20456;-63
2023/07/12 08:53:17;;;;;;;4.40;3.00;;;21.90;99.90;;;;;;5101264;28;20460;-63
2023/07/12 08:55:45;;;;;;;3.50;2.80;;;21.80;99.90;;;;;;5100294;28;20490;-64
2023/07/12 08:58:21;;;;;;;2.37;2.17;;;22.30;99.90;;;;;;5100879;28;20487;-62
2023/07/12 09:00:52;;;;;;;4.67;2.73;;;22.30;99.90;;;;;;5100691;28;20460;-61
2023/07/12 09:03:21;;;;;;;2.90;2.60;;;23.00;99.90;;;;;;5100732;28;20460;-62
2023/07/12 09:05:49;;;;;;;3.47;3.13;;;22.70;99.90;;;;;;5100677;28;20558;-64
2023/07/12 09:08:19;;;;;;;6.23;2.77;;;23.20;99.90;;;;;;5101000;28;20479;-63
2023/07/12 09:10:49;;;;;;;4.13;2.90;;;23.30;99.90;;;;;;5100886;28;20464;-63
2023/07/12 09:13:18;;;;;;;5.70;2.90;;;23.90;99.90;;;;;;5100674;28;20488;-62
2023/07/12 09:15:48;;;;;;;5.23;2.80;;;23.50;99.90;;;;;;5100668;28;20464;-62
2023/07/12 09:18:28;;;;;;;5.70;3.03;;;23.40;99.90;;;;;;5100382;28;20587;-64
2023/07/12 09:20:57;;;;;;;4.43;2.53;;;23.20;99.90;;;;;;5100483;28;20468;-63
2023/07/12 09:23:25;;;;;;;3.23;2.50;;;23.20;99.90;;;;;;5100169;28;20529;-63
2023/07/12 09:25:56;;;;;;;5.80;2.70;;;23.60;99.90;;;;;;5100504;28;20435;-63
2023/07/12 09:28:24;;;;;;;5.43;2.80;;;24.00;99.90;;;;;;5100653;28;20553;-62
2023/07/12 09:30:52;;;;;;;5.00;3.27;;;23.60;99.90;;;;;;5100421;28;20434;-64
2023/07/12 09:33:25;;;;;;;4.33;2.83;;;22.90;99.90;;;;;;5100231;28;20843;-63
2023/07/12 09:35:53;;;;;;;4.37;2.50;;;22.40;99.90;;;;;;5099931;28;20464;-63
2023/07/12 09:38:24;;;;;;;3.90;3.03;;;22.20;99.90;;;;;;5100325;28;20907;-63
2023/07/12 09:40:53;;;;;;;5.17;2.90;;;22.20;99.90;;;;;;5098849;28;20900;-62
2023/07/12 09:43:25;;;;;;;4.77;2.50;;;22.60;99.90;;;;;;5099736;28;20512;-62
2023/07/12 09:46:00;;;;;;;5.47;3.10;;;22.60;99.90;;;;;;5100109;28;20884;-61
2023/07/12 09:48:38;;;;;;;3.23;2.70;;;23.00;99.90;;;;;;5099971;28;20463;-62
2023/07/12 09:51:18;;;;;;;4.47;3.13;;;22.80;99.90;;;;;;5099720;28;20927;-61
2023/07/12 09:53:51;;;;;;;3.40;3.10;;;22.80;99.90;;;;;;5097511;28;20500;-63
2023/07/12 09:56:29;;;;;;;6.13;3.20;;;22.50;99.90;;;;;;5100152;28;20543;-62
2023/07/12 09:59:03;;;;;;;3.77;2.80;;;22.20;99.90;;;;;;5099753;28;20963;-63
2023/07/12 10:01:39;;;;;;;4.57;3.13;;;22.60;99.90;;;;;;5099158;28;20464;-63
2023/07/12 10:04:30;;;;;;;5.23;3.47;;;23.00;99.90;;;;;;5099783;28;20908;-63
2023/07/12 10:06:58;;;;;;;5.90;3.33;;;22.30;99.90;;;;;;5099439;28;20488;-61
2023/07/12 10:09:31;;;;;;;6.23;3.10;;;22.10;99.90;;;;;;5099537;28;20554;-60
2023/07/12 10:12:04;;;;;;;3.93;2.90;;;22.60;99.90;;;;;;5099465;28;20461;-63
2023/07/12 10:14:35;;;;;;;3.83;2.97;;;23.60;99.90;;;;;;5099476;28;20518;-62
2023/07/12 10:17:03;;;;;;;4.23;2.50;;;24.40;99.90;;;;;;5099025;28;20457;-62
2023/07/12 10:19:36;;;;;;;5.40;2.47;;;23.80;99.90;;;;;;5099169;28;20990;-61
2023/07/12 10:22:11;;;;;;;5.13;3.50;;;24.80;99.90;;;;;;5099205;28;20482;-63
2023/07/12 10:24:43;;;;;;;3.10;2.70;;;24.90;99.90;;;;;;5099209;28;20858;-62
2023/07/12 10:27:18;;;;;;;6.37;2.67;;;25.30;99.90;;;;;;5099382;28;20460;-63
2023/07/12 10:29:51;;;;;;;5.27;3.37;;;24.80;99.90;;;;;;5099043;28;20463;-61
2023/07/12 10:32:23;;;;;;;5.17;2.97;;;24.00;99.90;;;;;;5098725;28;20482;-61
2023/07/12 10:35:05;;;;;;;4.73;3.17;;;23.10;99.90;;;;;;5098854;28;20464;-62
2023/07/12 10:37:38;;;;;;;4.73;2.73;;;22.80;99.90;;;;;;5099322;28;20464;-61
2023/07/12 10:40:13;;;;;;;6.00;2.83;;;22.80;99.90;;;;;;5099001;28;20488;-62
2023/07/12 10:42:45;;;;;;;3.20;2.47;;;23.10;99.90;;;;;;5098270;28;20455;-62
2023/07/12 10:45:22;;;;;;;3.50;2.67;;;23.00;99.90;;;;;;5098548;28;20467;-62
2023/07/12 10:47:52;;;;;;;4.30;2.57;;;22.50;99.90;;;;;;5098662;28;20460;-62
2023/07/12 10:50:25;;;;;;;4.77;2.67;;;22.40;99.90;;;;;;5098837;28;20463;-60
2023/07/12 10:53:04;;;;;;;3.73;2.13;;;23.10;99.90;;;;;;5098540;28;20736;-62
2023/07/12 10:55:47;;;;;;;6.70;2.70;;;23.20;99.90;;;;;;5098882;28;20513;-62
2023/07/12 10:58:28;;;;;;;2.90;2.33;;;23.10;99.90;;;;;;5098812;28;20781;-61
2023/07/12 11:00:57;;;;;;;3.60;2.30;;;23.10;99.90;;;;;;5097225;28;20487;-62
2023/07/12 11:03:41;;;;;;;5.27;2.90;;;23.40;99.90;;;;;;5097372;28;20604;-62
2023/07/12 11:06:23;;;;;;;4.27;2.50;;;23.20;99.90;;;;;;5096222;28;20533;-63
2023/07/12 11:09:08;;;;;;;7.47;2.73;;;23.20;99.90;;;;;;5095848;28;20460;-61
2023/07/12 11:11:44;;;;;;;4.90;2.80;;;22.80;99.90;;;;;;5096540;28;20773;-61
2023/07/12 11:14:42;;;;;;;5.27;2.63;;;22.40;99.90;;;;;;5097288;28;20912;-61
2023/07/12 11:17:20;;;;;;;4.40;2.53;;;22.90;99.90;;;;;;5096442;28;20471;-61
2023/07/12 11:20:08;;;;;;;6.10;2.87;;;23.90;99.90;;;;;;5095753;28;20780;-64
2023/07/12 11:23:23;;;;;;;2.60;2.03;;;25.00;99.90;;;;;;5095303;28;20462;-63
2023/07/12 11:26:01;;;;;;;3.57;2.53;;;25.50;99.90;;;;;;5033170;28;20455;-63
2023/07/12 11:28:41;;;;;;;4.20;2.30;;;26.40;99.90;;;;;;5093659;28;20462;-63
2023/07/12 11:31:32;;;;;;;3.73;2.47;;;26.60;99.90;;;;;;5096733;28;20456;-62
2023/07/12 11:34:11;;;;;;;7.23;3.00;;;26.60;99.90;;;;;;5094228;28;20504;-61
2023/07/12 11:36:39;;;;;;;3.63;2.53;;;26.00;99.90;;;;;;5098089;28;20456;-60
2023/07/12 11:39:15;;;;;;;3.77;2.43;;;25.00;99.90;;;;;;5097403;28;20496;-61
2023/07/12 11:41:53;;;;;;;3.93;2.17;;;25.60;99.90;;;;;;5097313;28;20491;-62
2023/07/12 11:44:21;;;;;;;4.67;2.40;;;26.20;99.90;;;;;;5097730;28;20466;-62
2023/07/12 11:46:51;;;;;;;3.30;1.90;;;25.90;99.90;;;;;;5097204;28;20551;-61
2023/07/12 11:49:22;;;;;;;4.80;2.50;;;25.30;99.90;;;;;;5097343;28;20468;-61
2023/07/12 11:51:53;;;;;;;6.27;2.90;;;25.10;99.90;;;;;;5097811;28;20460;-61
2023/07/12 11:54:24;;;;;;;5.40;2.53;;;24.90;99.90;;;;;;5097871;28;20514;-62
2023/07/12 11:56:58;;;;;;;2.97;2.00;;;24.70;99.90;;;;;;5097334;28;20473;-61
2023/07/12 11:59:29;;;;;;;3.07;2.43;;;25.30;99.90;;;;;;5097498;28;20487;-62
2023/07/12 12:01:56;;;;;;;3.33;1.90;;;26.50;99.90;;;;;;5097126;28;20469;-61
2023/07/12 12:04:26;;;;;;;2.27;2.07;;;27.20;99.90;;;;;;5096542;28;20865;-61
2023/07/12 12:06:56;;;;;;;3.50;2.60;;;27.40;99.90;;;;;;5094037;28;20499;-61
2023/07/12 12:09:28;;;;;;;2.80;2.20;;;27.10;99.90;;;;;;5095071;28;20769;-62
2023/07/12 12:11:58;;;;;;;3.73;2.57;;;26.60;99.90;;;;;;5094932;28;20893;-61
2023/07/12 12:14:28;;;;;;;6.73;2.50;;;26.30;99.90;;;;;;5094952;28;20464;-63
2023/07/12 12:17:04;;;;;;;8.50;3.00;;;26.30;99.90;;;;;;5095910;28;20514;-61
2023/07/12 12:19:32;;;;;;;2.93;2.43;;;26.30;99.90;;;;;;5093237;28;20488;-61
2023/07/12 12:22:04;;;;;;;4.30;2.50;;;25.70;99.90;;;;;;5095394;28;20483;-61
2023/07/12 12:24:41;;;;;;;3.67;2.30;;;24.90;99.90;;;;;;5094389;28;20508;-62
2023/07/12 12:27:18;;;;;;;5.00;2.30;;;24.30;99.90;;;;;;5095785;28;20460;-62
2023/07/12 12:29:46;;;;;;;3.50;2.40;;;24.30;99.90;;;;;;5096155;28;20794;-61
2023/07/12 12:32:16;;;;;;;4.03;2.50;;;24.40;99.90;;;;;;5096570;28;20435;-61
2023/07/12 12:34:47;;;;;;;2.67;2.30;;;24.30;99.90;;;;;;5096681;28;20578;-61
2023/07/12 12:37:22;;;;;;;4.57;2.63;;;25.00;99.90;;;;;;5095767;28;20751;-62
2023/07/12 12:40:00;;;;;;;2.67;2.47;;;25.80;99.90;;;;;;5094998;28;20494;-62
2023/07/12 12:42:32;;;;;;;4.10;2.50;;;26.30;99.90;;;;;;5095315;28;20484;-59
2023/07/12 12:44:59;;;;;;;7.37;3.20;;;26.50;99.90;;;;;;5094956;28;20466;-60
2023/07/12 12:47:30;;;;;;;5.50;2.50;;;27.00;99.90;;;;;;5095409;28;20464;-58
2023/07/12 12:49:58;;;;;;;3.20;2.33;;;26.40;99.90;;;;;;5095435;28;20476;-60
2023/07/12 12:52:27;;;;;;;2.40;2.13;;;26.30;99.90;;;;;;5096007;28;20431;-61
2023/07/12 12:54:58;;;;;;;6.47;2.87;;;26.70;99.90;;;;;;5096878;28;20800;-61
2023/07/12 12:57:26;;;;;;;3.60;2.33;;;26.00;99.90;;;;;;5097264;28;20460;-62
2023/07/12 12:59:54;;;;;;;3.87;2.50;;;26.10;99.90;;;;;;5096831;28;20833;-61
2023/07/12 13:02:22;;;;;;;4.37;3.17;;;26.70;99.90;;;;;;5097157;28;20460;-62
2023/07/12 13:04:50;;;;;;;4.80;2.97;;;27.20;99.90;;;;;;5095843;28;20456;-63